<?xml version="1.0" encoding="UTF-8"?>
<gpx version="1.1" creator="2bulu-scraper" xmlns="http://www.topografix.com/GPX/1/1">
  <metadata><name>峨眉山报国寺到金顶</name><desc>source: 2bulu.com trackId=86635139; exported 2026-09-01T16:14:22.508Z</desc>
    <bounds minlat="29.522751" minlon="103.326866" maxlat="29.57419" maxlon="103.441506"/>
    <link href="https://www.2bulu.com/track/t-3R29wbpquBXp%252FR2KBg5Tzw%253D%253D.htm"><text>2bulu 源页面</text></link>
  </metadata>
  <wpt lat="29.5706347" lon="103.4415064"><ele>0</ele><name></name></wpt>
  <wpt lat="29.5706347" lon="103.4415064"><ele>0</ele><name></name></wpt>
  <wpt lat="29.5706347" lon="103.4415064"><ele>0</ele><name></name></wpt>
  <wpt lat="29.5706347" lon="103.4415064"><ele>0</ele><name></name></wpt>
  <wpt lat="29.5706347" lon="103.4415064"><ele>0</ele><name></name></wpt>
  <wpt lat="29.5706347" lon="103.4415064"><ele>0</ele><name></name></wpt>
  <wpt lat="29.5706347" lon="103.4415064"><ele>0</ele><name></name></wpt>
  <wpt lat="29.5706347" lon="103.4415064"><ele>0</ele><name></name></wpt>
  <wpt lat="29.5706347" lon="103.4415064"><ele>0</ele><name></name></wpt>
  <wpt lat="29.5706347" lon="103.4415064"><ele>0</ele><name></name></wpt>
  <wpt lat="29.5706347" lon="103.4415064"><ele>0</ele><name></name></wpt>
  <wpt lat="29.5706347" lon="103.4415064"><ele>0</ele><name></name></wpt>
  <wpt lat="29.5706347" lon="103.4415064"><ele>0</ele><name></name></wpt>
  <wpt lat="29.5706347" lon="103.4415064"><ele>0</ele><name></name></wpt>
  <wpt lat="29.5706347" lon="103.4415064"><ele>0</ele><name></name></wpt>
  <wpt lat="29.5706347" lon="103.4415064"><ele>0</ele><name></name></wpt>
  <wpt lat="29.5706347" lon="103.4415064"><ele>0</ele><name></name></wpt>
  <wpt lat="29.5706347" lon="103.4415064"><ele>0</ele><name></name></wpt>
  <wpt lat="29.5706347" lon="103.4415064"><ele>0</ele><name></name></wpt>
  <wpt lat="29.5706347" lon="103.4415064"><ele>0</ele><name></name></wpt>
  <trk><name>峨眉山报国寺到金顶</name>
      <trkseg>
        <trkpt lat="29.570635" lon="103.441506"><ele>665</ele><time>2026-07-01T13:49:57.000Z</time></trkpt>
        <trkpt lat="29.569821" lon="103.44097"><ele>661</ele><time>2026-07-01T13:50:28.000Z</time></trkpt>
        <trkpt lat="29.569063" lon="103.440887"><ele>656</ele><time>2026-07-01T13:50:53.000Z</time></trkpt>
        <trkpt lat="29.568935" lon="103.440214"><ele>662</ele><time>2026-07-01T13:51:17.000Z</time></trkpt>
        <trkpt lat="29.567328" lon="103.438172"><ele>676</ele><time>2026-07-01T13:52:49.000Z</time></trkpt>
        <trkpt lat="29.56643" lon="103.436584"><ele>688</ele><time>2026-07-01T13:53:56.000Z</time></trkpt>
        <trkpt lat="29.565924" lon="103.43515"><ele>695</ele><time>2026-07-01T13:54:52.000Z</time></trkpt>
        <trkpt lat="29.56555" lon="103.434673"><ele>703</ele><time>2026-07-01T13:55:17.000Z</time></trkpt>
        <trkpt lat="29.565773" lon="103.433784"><ele>713</ele><time>2026-07-01T13:55:56.000Z</time></trkpt>
        <trkpt lat="29.565309" lon="103.432014"><ele>725</ele><time>2026-07-01T13:57:01.000Z</time></trkpt>
        <trkpt lat="29.565503" lon="103.431062"><ele>737</ele><time>2026-07-01T13:57:56.000Z</time></trkpt>
        <trkpt lat="29.56482" lon="103.428573"><ele>751</ele><time>2026-07-01T13:59:41.000Z</time></trkpt>
        <trkpt lat="29.565445" lon="103.42786"><ele>758</ele><time>2026-07-01T14:00:20.000Z</time></trkpt>
        <trkpt lat="29.565247" lon="103.427134"><ele>766</ele><time>2026-07-01T14:00:53.000Z</time></trkpt>
        <trkpt lat="29.564923" lon="103.426897"><ele>769</ele><time>2026-07-01T14:01:20.000Z</time></trkpt>
        <trkpt lat="29.565194" lon="103.42583"><ele>810</ele><time>2026-07-01T14:03:34.000Z</time></trkpt>
        <trkpt lat="29.564756" lon="103.425189"><ele>809</ele><time>2026-07-01T14:04:10.000Z</time></trkpt>
        <trkpt lat="29.564631" lon="103.424358"><ele>826</ele><time>2026-07-01T14:05:22.000Z</time></trkpt>
        <trkpt lat="29.564367" lon="103.423833"><ele>843</ele><time>2026-07-01T14:06:26.000Z</time></trkpt>
        <trkpt lat="29.564515" lon="103.423"><ele>859</ele><time>2026-07-01T14:07:35.000Z</time></trkpt>
        <trkpt lat="29.56427" lon="103.421416"><ele>909</ele><time>2026-07-01T14:11:00.000Z</time></trkpt>
        <trkpt lat="29.564698" lon="103.421092"><ele>917</ele><time>2026-07-01T14:11:49.000Z</time></trkpt>
        <trkpt lat="29.564962" lon="103.421384"><ele>926</ele><time>2026-07-01T14:12:34.000Z</time></trkpt>
        <trkpt lat="29.565646" lon="103.42108"><ele>944</ele><time>2026-07-01T14:13:57.000Z</time></trkpt>
        <trkpt lat="29.566147" lon="103.421117"><ele>954</ele><time>2026-07-01T14:14:45.000Z</time></trkpt>
        <trkpt lat="29.566686" lon="103.419846"><ele>954</ele><time>2026-07-01T14:15:54.000Z</time></trkpt>
        <trkpt lat="29.566975" lon="103.420023"><ele>963</ele><time>2026-07-01T14:16:31.000Z</time></trkpt>
        <trkpt lat="29.567131" lon="103.420438"><ele>972</ele><time>2026-07-01T14:17:15.000Z</time></trkpt>
        <trkpt lat="29.567416" lon="103.42045"><ele>982</ele><time>2026-07-01T14:17:56.000Z</time></trkpt>
        <trkpt lat="29.568027" lon="103.420117"><ele>1006</ele><time>2026-07-01T14:19:37.000Z</time></trkpt>
        <trkpt lat="29.568659" lon="103.42007"><ele>1031</ele><time>2026-07-01T14:21:29.000Z</time></trkpt>
        <trkpt lat="29.569194" lon="103.419803"><ele>1036</ele><time>2026-07-01T14:22:22.000Z</time></trkpt>
        <trkpt lat="29.569741" lon="103.419214"><ele>1031</ele><time>2026-07-01T14:22:55.000Z</time></trkpt>
        <trkpt lat="29.570087" lon="103.4172"><ele>1023</ele><time>2026-07-01T14:24:06.000Z</time></trkpt>
        <trkpt lat="29.57037" lon="103.416995"><ele>1023</ele><time>2026-07-01T14:24:19.000Z</time></trkpt>
        <trkpt lat="29.570385" lon="103.416267"><ele>1019</ele><time>2026-07-01T14:24:46.000Z</time></trkpt>
        <trkpt lat="29.570728" lon="103.415989"><ele>1027</ele><time>2026-07-01T14:25:27.000Z</time></trkpt>
        <trkpt lat="29.570009" lon="103.415504"><ele>1032</ele><time>2026-07-01T14:26:07.000Z</time></trkpt>
        <trkpt lat="29.569667" lon="103.414773"><ele>1032</ele><time>2026-07-01T14:26:36.000Z</time></trkpt>
        <trkpt lat="29.569209" lon="103.414843"><ele>1028</ele><time>2026-07-01T14:26:59.000Z</time></trkpt>
        <trkpt lat="29.568994" lon="103.413386"><ele>1023</ele><time>2026-07-01T14:27:53.000Z</time></trkpt>
        <trkpt lat="29.569404" lon="103.412658"><ele>1018</ele><time>2026-07-01T14:28:24.000Z</time></trkpt>
        <trkpt lat="29.569339" lon="103.412225"><ele>1009</ele><time>2026-07-01T14:28:51.000Z</time></trkpt>
        <trkpt lat="29.569047" lon="103.41217"><ele>999</ele><time>2026-07-01T14:29:11.000Z</time></trkpt>
        <trkpt lat="29.568368" lon="103.411579"><ele>985</ele><time>2026-07-01T14:29:59.000Z</time></trkpt>
        <trkpt lat="29.568618" lon="103.410571"><ele>980</ele><time>2026-07-01T14:30:32.000Z</time></trkpt>
        <trkpt lat="29.568589" lon="103.410055"><ele>979</ele><time>2026-07-01T14:30:51.000Z</time></trkpt>
        <trkpt lat="29.568312" lon="103.409848"><ele>974</ele><time>2026-07-01T14:31:06.000Z</time></trkpt>
        <trkpt lat="29.567726" lon="103.408474"><ele>934</ele><time>2026-07-01T14:32:28.000Z</time></trkpt>
        <trkpt lat="29.567456" lon="103.40869"><ele>926</ele><time>2026-07-01T14:32:47.000Z</time></trkpt>
        <trkpt lat="29.566681" lon="103.408394"><ele>923</ele><time>2026-07-01T14:33:16.000Z</time></trkpt>
        <trkpt lat="29.56642" lon="103.406954"><ele>923</ele><time>2026-07-01T14:34:45.000Z</time></trkpt>
        <trkpt lat="29.567129" lon="103.405901"><ele>915</ele><time>2026-07-01T14:35:26.000Z</time></trkpt>
        <trkpt lat="29.56675" lon="103.405358"><ele>911</ele><time>2026-07-01T14:35:47.000Z</time></trkpt>
        <trkpt lat="29.566765" lon="103.405121"><ele>911</ele><time>2026-07-01T14:35:55.000Z</time></trkpt>
        <trkpt lat="29.567814" lon="103.405068"><ele>908</ele><time>2026-07-01T14:36:31.000Z</time></trkpt>
        <trkpt lat="29.568202" lon="103.404834"><ele>907</ele><time>2026-07-01T14:36:47.000Z</time></trkpt>
        <trkpt lat="29.568805" lon="103.403948"><ele>898</ele><time>2026-07-01T14:37:22.000Z</time></trkpt>
        <trkpt lat="29.569381" lon="103.403824"><ele>894</ele><time>2026-07-01T14:37:42.000Z</time></trkpt>
        <trkpt lat="29.570131" lon="103.402841"><ele>887</ele><time>2026-07-01T14:38:19.000Z</time></trkpt>
        <trkpt lat="29.570943" lon="103.40263"><ele>879</ele><time>2026-07-01T14:38:43.000Z</time></trkpt>
        <trkpt lat="29.572005" lon="103.401528"><ele>882</ele><time>2026-07-01T14:39:44.000Z</time></trkpt>
        <trkpt lat="29.571477" lon="103.397415"><ele>925</ele><time>2026-07-01T14:46:26.000Z</time></trkpt>
        <trkpt lat="29.571773" lon="103.396844"><ele>911</ele><time>2026-07-01T14:46:59.000Z</time></trkpt>
        <trkpt lat="29.572318" lon="103.396665"><ele>891</ele><time>2026-07-01T14:47:39.000Z</time></trkpt>
        <trkpt lat="29.572408" lon="103.396095"><ele>881</ele><time>2026-07-01T14:48:07.000Z</time></trkpt>
        <trkpt lat="29.572986" lon="103.395278"><ele>868</ele><time>2026-07-01T14:48:51.000Z</time></trkpt>
        <trkpt lat="29.572755" lon="103.394576"><ele>852</ele><time>2026-07-01T14:49:31.000Z</time></trkpt>
        <trkpt lat="29.57295" lon="103.394003"><ele>842</ele><time>2026-07-01T14:49:59.000Z</time></trkpt>
        <trkpt lat="29.573069" lon="103.393755"><ele>842</ele><time>2026-07-01T14:50:10.000Z</time></trkpt>
        <trkpt lat="29.573906" lon="103.393332"><ele>837</ele><time>2026-07-01T14:50:47.000Z</time></trkpt>
        <trkpt lat="29.574106" lon="103.392769"><ele>822</ele><time>2026-07-01T14:51:22.000Z</time></trkpt>
        <trkpt lat="29.574028" lon="103.392438"><ele>815</ele><time>2026-07-01T14:51:39.000Z</time></trkpt>
        <trkpt lat="29.57419" lon="103.392331"><ele>810</ele><time>2026-07-01T14:52:52.000Z</time></trkpt>
        <trkpt lat="29.574096" lon="103.392094"><ele>814</ele><time>2026-07-01T14:53:04.000Z</time></trkpt>
        <trkpt lat="29.57375" lon="103.392073"><ele>810</ele><time>2026-07-01T14:53:24.000Z</time></trkpt>
        <trkpt lat="29.573376" lon="103.391729"><ele>813</ele><time>2026-07-01T14:54:01.000Z</time></trkpt>
        <trkpt lat="29.572748" lon="103.3919"><ele>820</ele><time>2026-07-01T14:54:37.000Z</time></trkpt>
        <trkpt lat="29.571893" lon="103.391645"><ele>824</ele><time>2026-07-01T14:55:38.000Z</time></trkpt>
        <trkpt lat="29.571022" lon="103.391709"><ele>824</ele><time>2026-07-01T14:56:41.000Z</time></trkpt>
        <trkpt lat="29.57002" lon="103.390901"><ele>839</ele><time>2026-07-01T14:58:48.000Z</time></trkpt>
        <trkpt lat="29.569421" lon="103.390961"><ele>827</ele><time>2026-07-01T14:59:35.000Z</time></trkpt>
        <trkpt lat="29.569245" lon="103.390843"><ele>827</ele><time>2026-07-01T14:59:51.000Z</time></trkpt>
        <trkpt lat="29.568939" lon="103.391238"><ele>830</ele><time>2026-07-01T15:00:22.000Z</time></trkpt>
        <trkpt lat="29.568646" lon="103.391227"><ele>830</ele><time>2026-07-01T15:00:33.000Z</time></trkpt>
        <trkpt lat="29.568485" lon="103.390769"><ele>832</ele><time>2026-07-01T15:00:50.000Z</time></trkpt>
        <trkpt lat="29.568232" lon="103.390996"><ele>837</ele><time>2026-07-01T15:01:16.000Z</time></trkpt>
        <trkpt lat="29.567906" lon="103.390787"><ele>837</ele><time>2026-07-01T15:01:48.000Z</time></trkpt>
        <trkpt lat="29.567664" lon="103.390825"><ele>839</ele><time>2026-07-01T15:02:07.000Z</time></trkpt>
        <trkpt lat="29.566615" lon="103.389872"><ele>847</ele><time>2026-07-01T15:03:15.000Z</time></trkpt>
        <trkpt lat="29.566109" lon="103.389707"><ele>850</ele><time>2026-07-01T15:03:49.000Z</time></trkpt>
        <trkpt lat="29.565698" lon="103.389771"><ele>854</ele><time>2026-07-01T15:04:22.000Z</time></trkpt>
        <trkpt lat="29.565213" lon="103.389459"><ele>859</ele><time>2026-07-01T15:04:57.000Z</time></trkpt>
        <trkpt lat="29.564882" lon="103.388993"><ele>860</ele><time>2026-07-01T15:05:18.000Z</time></trkpt>
        <trkpt lat="29.564533" lon="103.388896"><ele>861</ele><time>2026-07-01T15:05:45.000Z</time></trkpt>
        <trkpt lat="29.563876" lon="103.388984"><ele>874</ele><time>2026-07-01T15:06:36.000Z</time></trkpt>
        <trkpt lat="29.563522" lon="103.388862"><ele>878</ele><time>2026-07-01T15:07:05.000Z</time></trkpt>
        <trkpt lat="29.562663" lon="103.389132"><ele>887</ele><time>2026-07-01T15:08:17.000Z</time></trkpt>
        <trkpt lat="29.562132" lon="103.389069"><ele>890</ele><time>2026-07-01T15:08:57.000Z</time></trkpt>
        <trkpt lat="29.562029" lon="103.389515"><ele>884</ele><time>2026-07-01T15:09:41.000Z</time></trkpt>
        <trkpt lat="29.561299" lon="103.389333"><ele>890</ele><time>2026-07-01T15:10:26.000Z</time></trkpt>
        <trkpt lat="29.560279" lon="103.389444"><ele>898</ele><time>2026-07-01T15:11:29.000Z</time></trkpt>
        <trkpt lat="29.560189" lon="103.38876"><ele>914</ele><time>2026-07-01T15:12:29.000Z</time></trkpt>
        <trkpt lat="29.559718" lon="103.38841"><ele>916</ele><time>2026-07-01T15:12:53.000Z</time></trkpt>
        <trkpt lat="29.559549" lon="103.388029"><ele>915</ele><time>2026-07-01T15:13:10.000Z</time></trkpt>
        <trkpt lat="29.559214" lon="103.387818"><ele>914</ele><time>2026-07-01T15:13:25.000Z</time></trkpt>
        <trkpt lat="29.558533" lon="103.387715"><ele>919</ele><time>2026-07-01T15:14:11.000Z</time></trkpt>
        <trkpt lat="29.558019" lon="103.38716"><ele>929</ele><time>2026-07-01T15:15:10.000Z</time></trkpt>
        <trkpt lat="29.557723" lon="103.387055"><ele>932</ele><time>2026-07-01T15:15:34.000Z</time></trkpt>
        <trkpt lat="29.557479" lon="103.386593"><ele>936</ele><time>2026-07-01T15:16:13.000Z</time></trkpt>
        <trkpt lat="29.557075" lon="103.386473"><ele>940</ele><time>2026-07-01T15:16:45.000Z</time></trkpt>
        <trkpt lat="29.556835" lon="103.386046"><ele>942</ele><time>2026-07-01T15:17:26.000Z</time></trkpt>
        <trkpt lat="29.556567" lon="103.386175"><ele>944</ele><time>2026-07-01T15:18:00.000Z</time></trkpt>
        <trkpt lat="29.556434" lon="103.385954"><ele>959</ele><time>2026-07-01T15:18:57.000Z</time></trkpt>
        <trkpt lat="29.556229" lon="103.386116"><ele>968</ele><time>2026-07-01T15:19:38.000Z</time></trkpt>
        <trkpt lat="29.555918" lon="103.386004"><ele>982</ele><time>2026-07-01T15:20:41.000Z</time></trkpt>
        <trkpt lat="29.556089" lon="103.385936"><ele>986</ele><time>2026-07-01T15:21:08.000Z</time></trkpt>
        <trkpt lat="29.556107" lon="103.385485"><ele>1002</ele><time>2026-07-01T15:22:24.000Z</time></trkpt>
        <trkpt lat="29.5558" lon="103.385598"><ele>1019</ele><time>2026-07-01T15:23:33.000Z</time></trkpt>
        <trkpt lat="29.555674" lon="103.385102"><ele>1041</ele><time>2026-07-01T15:25:14.000Z</time></trkpt>
        <trkpt lat="29.555082" lon="103.38502"><ele>1063</ele><time>2026-07-01T15:26:43.000Z</time></trkpt>
        <trkpt lat="29.554621" lon="103.384595"><ele>1078</ele><time>2026-07-01T15:27:57.000Z</time></trkpt>
        <trkpt lat="29.555063" lon="103.384253"><ele>1101</ele><time>2026-07-01T15:29:42.000Z</time></trkpt>
        <trkpt lat="29.554931" lon="103.383914"><ele>1103</ele><time>2026-07-01T15:30:15.000Z</time></trkpt>
        <trkpt lat="29.555021" lon="103.383581"><ele>1101</ele><time>2026-07-01T15:30:30.000Z</time></trkpt>
        <trkpt lat="29.554489" lon="103.383191"><ele>1103</ele><time>2026-07-01T15:31:15.000Z</time></trkpt>
        <trkpt lat="29.554229" lon="103.382372"><ele>1129</ele><time>2026-07-01T15:33:12.000Z</time></trkpt>
        <trkpt lat="29.553927" lon="103.380946"><ele>1143</ele><time>2026-07-01T15:34:50.000Z</time></trkpt>
        <trkpt lat="29.55402" lon="103.380096"><ele>1151</ele><time>2026-07-01T15:35:23.000Z</time></trkpt>
        <trkpt lat="29.553711" lon="103.378284"><ele>1190</ele><time>2026-07-01T15:38:30.000Z</time></trkpt>
        <trkpt lat="29.552878" lon="103.377275"><ele>1238</ele><time>2026-07-01T15:42:30.000Z</time></trkpt>
        <trkpt lat="29.551791" lon="103.376759"><ele>1283</ele><time>2026-07-01T15:50:52.000Z</time></trkpt>
        <trkpt lat="29.55154" lon="103.375527"><ele>1321</ele><time>2026-07-01T15:53:57.000Z</time></trkpt>
        <trkpt lat="29.55014" lon="103.374937"><ele>1337</ele><time>2026-07-01T15:56:20.000Z</time></trkpt>
        <trkpt lat="29.549906" lon="103.374706"><ele>1342</ele><time>2026-07-01T15:56:54.000Z</time></trkpt>
        <trkpt lat="29.550709" lon="103.373825"><ele>1353</ele><time>2026-07-01T15:58:50.000Z</time></trkpt>
        <trkpt lat="29.551106" lon="103.373885"><ele>1349</ele><time>2026-07-01T15:59:08.000Z</time></trkpt>
        <trkpt lat="29.551304" lon="103.373329"><ele>1346</ele><time>2026-07-01T15:59:21.000Z</time></trkpt>
        <trkpt lat="29.551102" lon="103.372899"><ele>1348</ele><time>2026-07-01T15:59:40.000Z</time></trkpt>
        <trkpt lat="29.55029" lon="103.373024"><ele>1350</ele><time>2026-07-01T16:00:24.000Z</time></trkpt>
        <trkpt lat="29.550573" lon="103.372655"><ele>1348</ele><time>2026-07-01T16:00:33.000Z</time></trkpt>
        <trkpt lat="29.550659" lon="103.372109"><ele>1344</ele><time>2026-07-01T16:01:00.000Z</time></trkpt>
        <trkpt lat="29.550217" lon="103.371467"><ele>1335</ele><time>2026-07-01T16:01:34.000Z</time></trkpt>
        <trkpt lat="29.550427" lon="103.370983"><ele>1335</ele><time>2026-07-01T16:01:53.000Z</time></trkpt>
        <trkpt lat="29.550281" lon="103.370638"><ele>1325</ele><time>2026-07-01T16:02:13.000Z</time></trkpt>
        <trkpt lat="29.550331" lon="103.36997"><ele>1329</ele><time>2026-07-01T16:04:45.000Z</time></trkpt>
        <trkpt lat="29.549876" lon="103.369277"><ele>1357</ele><time>2026-07-01T16:07:00.000Z</time></trkpt>
        <trkpt lat="29.549901" lon="103.368869"><ele>1373</ele><time>2026-07-01T16:08:21.000Z</time></trkpt>
        <trkpt lat="29.549763" lon="103.36892"><ele>1378</ele><time>2026-07-01T16:08:48.000Z</time></trkpt>
        <trkpt lat="29.54959" lon="103.36867"><ele>1378</ele><time>2026-07-01T16:09:16.000Z</time></trkpt>
        <trkpt lat="29.549909" lon="103.368234"><ele>1428</ele><time>2026-07-01T16:13:03.000Z</time></trkpt>
        <trkpt lat="29.549852" lon="103.367885"><ele>1455</ele><time>2026-07-01T16:15:08.000Z</time></trkpt>
        <trkpt lat="29.550149" lon="103.367615"><ele>1475</ele><time>2026-07-01T16:16:56.000Z</time></trkpt>
        <trkpt lat="29.550217" lon="103.367374"><ele>1487</ele><time>2026-07-01T16:17:51.000Z</time></trkpt>
        <trkpt lat="29.550068" lon="103.3673"><ele>1497</ele><time>2026-07-01T16:18:36.000Z</time></trkpt>
        <trkpt lat="29.55028" lon="103.366902"><ele>1507</ele><time>2026-07-01T16:19:33.000Z</time></trkpt>
        <trkpt lat="29.549446" lon="103.366502"><ele>1557</ele><time>2026-07-01T16:23:34.000Z</time></trkpt>
        <trkpt lat="29.54937" lon="103.366291"><ele>1567</ele><time>2026-07-01T16:26:28.000Z</time></trkpt>
        <trkpt lat="29.549652" lon="103.365994"><ele>1566</ele><time>2026-07-01T16:26:56.000Z</time></trkpt>
        <trkpt lat="29.549471" lon="103.365532"><ele>1576</ele><time>2026-07-01T16:27:54.000Z</time></trkpt>
        <trkpt lat="29.550451" lon="103.363839"><ele>1591</ele><time>2026-07-01T16:30:35.000Z</time></trkpt>
        <trkpt lat="29.550755" lon="103.363647"><ele>1594</ele><time>2026-07-01T16:31:09.000Z</time></trkpt>
        <trkpt lat="29.550788" lon="103.363038"><ele>1627</ele><time>2026-07-01T16:34:11.000Z</time></trkpt>
        <trkpt lat="29.550555" lon="103.362914"><ele>1641</ele><time>2026-07-01T16:35:38.000Z</time></trkpt>
        <trkpt lat="29.550546" lon="103.361889"><ele>1687</ele><time>2026-07-01T16:42:55.000Z</time></trkpt>
        <trkpt lat="29.550201" lon="103.36135"><ele>1712</ele><time>2026-07-01T16:45:12.000Z</time></trkpt>
        <trkpt lat="29.549906" lon="103.361233"><ele>1716</ele><time>2026-07-01T16:45:47.000Z</time></trkpt>
        <trkpt lat="29.549786" lon="103.360854"><ele>1718</ele><time>2026-07-01T16:46:15.000Z</time></trkpt>
        <trkpt lat="29.550107" lon="103.360153"><ele>1714</ele><time>2026-07-01T16:46:57.000Z</time></trkpt>
        <trkpt lat="29.549847" lon="103.359386"><ele>1744</ele><time>2026-07-01T16:50:57.000Z</time></trkpt>
        <trkpt lat="29.550247" lon="103.359102"><ele>1752</ele><time>2026-07-01T16:51:46.000Z</time></trkpt>
        <trkpt lat="29.550326" lon="103.358411"><ele>1769</ele><time>2026-07-01T16:53:29.000Z</time></trkpt>
        <trkpt lat="29.55035" lon="103.357032"><ele>1793</ele><time>2026-07-01T16:56:06.000Z</time></trkpt>
        <trkpt lat="29.550032" lon="103.356957"><ele>1796</ele><time>2026-07-01T16:57:02.000Z</time></trkpt>
        <trkpt lat="29.54992" lon="103.356607"><ele>1794</ele><time>2026-07-01T17:00:30.000Z</time></trkpt>
        <trkpt lat="29.550234" lon="103.355771"><ele>1782</ele><time>2026-07-01T17:01:04.000Z</time></trkpt>
        <trkpt lat="29.550742" lon="103.355676"><ele>1771</ele><time>2026-07-01T17:01:28.000Z</time></trkpt>
        <trkpt lat="29.551345" lon="103.35517"><ele>1750</ele><time>2026-07-01T17:02:12.000Z</time></trkpt>
        <trkpt lat="29.551789" lon="103.354167"><ele>1733</ele><time>2026-07-01T17:02:57.000Z</time></trkpt>
        <trkpt lat="29.55197" lon="103.35408"><ele>1730</ele><time>2026-07-01T17:03:05.000Z</time></trkpt>
        <trkpt lat="29.551657" lon="103.353597"><ele>1729</ele><time>2026-07-01T17:03:24.000Z</time></trkpt>
        <trkpt lat="29.551764" lon="103.352951"><ele>1719</ele><time>2026-07-01T17:03:52.000Z</time></trkpt>
        <trkpt lat="29.551918" lon="103.352694"><ele>1706</ele><time>2026-07-01T17:04:13.000Z</time></trkpt>
        <trkpt lat="29.5522" lon="103.352755"><ele>1695</ele><time>2026-07-01T17:04:36.000Z</time></trkpt>
        <trkpt lat="29.552182" lon="103.352392"><ele>1679</ele><time>2026-07-01T17:05:08.000Z</time></trkpt>
        <trkpt lat="29.552477" lon="103.352177"><ele>1679</ele><time>2026-07-01T17:05:41.000Z</time></trkpt>
        <trkpt lat="29.553113" lon="103.352693"><ele>1693</ele><time>2026-07-01T17:07:21.000Z</time></trkpt>
        <trkpt lat="29.553794" lon="103.35251"><ele>1688</ele><time>2026-07-01T17:08:21.000Z</time></trkpt>
        <trkpt lat="29.554468" lon="103.352708"><ele>1694</ele><time>2026-07-01T17:09:17.000Z</time></trkpt>
        <trkpt lat="29.554727" lon="103.353661"><ele>1711</ele><time>2026-07-01T17:11:01.000Z</time></trkpt>
        <trkpt lat="29.555588" lon="103.353332"><ele>1688</ele><time>2026-07-01T17:12:02.000Z</time></trkpt>
        <trkpt lat="29.556148" lon="103.353498"><ele>1690</ele><time>2026-07-01T17:12:33.000Z</time></trkpt>
        <trkpt lat="29.557143" lon="103.352407"><ele>1671</ele><time>2026-07-01T17:13:52.000Z</time></trkpt>
        <trkpt lat="29.557615" lon="103.351485"><ele>1641</ele><time>2026-07-01T17:14:55.000Z</time></trkpt>
        <trkpt lat="29.558093" lon="103.351537"><ele>1651</ele><time>2026-07-01T17:15:44.000Z</time></trkpt>
        <trkpt lat="29.558505" lon="103.351344"><ele>1644</ele><time>2026-07-01T17:16:12.000Z</time></trkpt>
        <trkpt lat="29.559883" lon="103.350319"><ele>1644</ele><time>2026-07-01T17:20:44.000Z</time></trkpt>
        <trkpt lat="29.560187" lon="103.350621"><ele>1672</ele><time>2026-07-01T17:23:04.000Z</time></trkpt>
        <trkpt lat="29.560208" lon="103.351079"><ele>1690</ele><time>2026-07-01T17:24:23.000Z</time></trkpt>
        <trkpt lat="29.560571" lon="103.351087"><ele>1715</ele><time>2026-07-01T17:26:28.000Z</time></trkpt>
        <trkpt lat="29.560541" lon="103.351647"><ele>1752</ele><time>2026-07-01T17:30:12.000Z</time></trkpt>
        <trkpt lat="29.560834" lon="103.351469"><ele>1760</ele><time>2026-07-01T17:31:28.000Z</time></trkpt>
        <trkpt lat="29.561296" lon="103.351628"><ele>1762</ele><time>2026-07-01T17:32:12.000Z</time></trkpt>
        <trkpt lat="29.561851" lon="103.35218"><ele>1819</ele><time>2026-07-01T17:37:49.000Z</time></trkpt>
        <trkpt lat="29.562614" lon="103.352199"><ele>1854</ele><time>2026-07-01T17:41:51.000Z</time></trkpt>
        <trkpt lat="29.562448" lon="103.351743"><ele>1849</ele><time>2026-07-01T17:42:16.000Z</time></trkpt>
        <trkpt lat="29.562779" lon="103.351116"><ele>1869</ele><time>2026-07-01T17:44:11.000Z</time></trkpt>
        <trkpt lat="29.562904" lon="103.349761"><ele>1872</ele><time>2026-07-01T17:46:01.000Z</time></trkpt>
        <trkpt lat="29.563187" lon="103.349096"><ele>1873</ele><time>2026-07-01T17:46:26.000Z</time></trkpt>
        <trkpt lat="29.563239" lon="103.348377"><ele>1878</ele><time>2026-07-01T17:47:18.000Z</time></trkpt>
        <trkpt lat="29.563526" lon="103.3479"><ele>1878</ele><time>2026-07-01T17:47:46.000Z</time></trkpt>
        <trkpt lat="29.563507" lon="103.347393"><ele>1869</ele><time>2026-07-01T17:48:06.000Z</time></trkpt>
        <trkpt lat="29.562003" lon="103.345651"><ele>1860</ele><time>2026-07-01T17:49:39.000Z</time></trkpt>
        <trkpt lat="29.561592" lon="103.345571"><ele>1863</ele><time>2026-07-01T17:50:18.000Z</time></trkpt>
        <trkpt lat="29.561152" lon="103.345062"><ele>1883</ele><time>2026-07-01T17:54:57.000Z</time></trkpt>
        <trkpt lat="29.560727" lon="103.344884"><ele>1919</ele><time>2026-07-01T17:58:10.000Z</time></trkpt>
        <trkpt lat="29.560702" lon="103.344674"><ele>1928</ele><time>2026-07-01T18:03:23.000Z</time></trkpt>
        <trkpt lat="29.560261" lon="103.344465"><ele>1952</ele><time>2026-07-01T18:05:19.000Z</time></trkpt>
        <trkpt lat="29.560047" lon="103.344186"><ele>1974</ele><time>2026-07-01T18:07:11.000Z</time></trkpt>
        <trkpt lat="29.560112" lon="103.343864"><ele>1994</ele><time>2026-07-01T18:09:04.000Z</time></trkpt>
        <trkpt lat="29.560088" lon="103.343972"><ele>1998</ele><time>2026-07-01T18:13:42.000Z</time></trkpt>
        <trkpt lat="29.559681" lon="103.3435"><ele>2022</ele><time>2026-07-01T18:15:26.000Z</time></trkpt>
        <trkpt lat="29.559318" lon="103.34357"><ele>2048</ele><time>2026-07-01T18:18:05.000Z</time></trkpt>
        <trkpt lat="29.559207" lon="103.343768"><ele>2058</ele><time>2026-07-01T18:19:04.000Z</time></trkpt>
        <trkpt lat="29.558959" lon="103.343684"><ele>2078</ele><time>2026-07-01T18:20:42.000Z</time></trkpt>
        <trkpt lat="29.558861" lon="103.344302"><ele>2094</ele><time>2026-07-01T18:22:21.000Z</time></trkpt>
        <trkpt lat="29.557571" lon="103.343912"><ele>2112</ele><time>2026-07-01T18:26:09.000Z</time></trkpt>
        <trkpt lat="29.557166" lon="103.343588"><ele>2121</ele><time>2026-07-01T18:27:20.000Z</time></trkpt>
        <trkpt lat="29.556738" lon="103.343672"><ele>2139</ele><time>2026-07-01T18:29:13.000Z</time></trkpt>
        <trkpt lat="29.555846" lon="103.344972"><ele>2197</ele><time>2026-07-01T18:41:24.000Z</time></trkpt>
        <trkpt lat="29.555586" lon="103.344906"><ele>2210</ele><time>2026-07-01T18:42:27.000Z</time></trkpt>
        <trkpt lat="29.555437" lon="103.345126"><ele>2223</ele><time>2026-07-01T18:43:44.000Z</time></trkpt>
        <trkpt lat="29.555258" lon="103.344955"><ele>2229</ele><time>2026-07-01T18:44:22.000Z</time></trkpt>
        <trkpt lat="29.554073" lon="103.345494"><ele>2276</ele><time>2026-07-01T18:49:42.000Z</time></trkpt>
        <trkpt lat="29.553657" lon="103.345265"><ele>2288</ele><time>2026-07-01T18:50:51.000Z</time></trkpt>
        <trkpt lat="29.552423" lon="103.345417"><ele>2297</ele><time>2026-07-01T18:52:30.000Z</time></trkpt>
        <trkpt lat="29.552413" lon="103.34524"><ele>2298</ele><time>2026-07-01T18:52:46.000Z</time></trkpt>
        <trkpt lat="29.552022" lon="103.345061"><ele>2298</ele><time>2026-07-01T18:53:10.000Z</time></trkpt>
        <trkpt lat="29.551535" lon="103.344287"><ele>2295</ele><time>2026-07-01T18:53:51.000Z</time></trkpt>
        <trkpt lat="29.550661" lon="103.344043"><ele>2288</ele><time>2026-07-01T18:54:35.000Z</time></trkpt>
        <trkpt lat="29.549395" lon="103.342251"><ele>2300</ele><time>2026-07-01T18:57:14.000Z</time></trkpt>
        <trkpt lat="29.549051" lon="103.341202"><ele>2311</ele><time>2026-07-01T18:59:14.000Z</time></trkpt>
        <trkpt lat="29.548453" lon="103.341295"><ele>2332</ele><time>2026-07-01T19:07:03.000Z</time></trkpt>
        <trkpt lat="29.547406" lon="103.341052"><ele>2356</ele><time>2026-07-01T19:09:50.000Z</time></trkpt>
        <trkpt lat="29.547141" lon="103.340387"><ele>2372</ele><time>2026-07-01T19:11:27.000Z</time></trkpt>
        <trkpt lat="29.546988" lon="103.340376"><ele>2372</ele><time>2026-07-01T19:11:45.000Z</time></trkpt>
        <trkpt lat="29.547083" lon="103.339776"><ele>2400</ele><time>2026-07-01T19:14:19.000Z</time></trkpt>
        <trkpt lat="29.546316" lon="103.338746"><ele>2450</ele><time>2026-07-01T19:19:22.000Z</time></trkpt>
        <trkpt lat="29.546168" lon="103.33832"><ele>2462</ele><time>2026-07-01T19:20:28.000Z</time></trkpt>
        <trkpt lat="29.546574" lon="103.337279"><ele>2474</ele><time>2026-07-01T19:22:18.000Z</time></trkpt>
        <trkpt lat="29.546399" lon="103.336688"><ele>2470</ele><time>2026-07-01T19:22:58.000Z</time></trkpt>
        <trkpt lat="29.546694" lon="103.335003"><ele>2443</ele><time>2026-07-01T19:24:13.000Z</time></trkpt>
        <trkpt lat="29.545905" lon="103.334735"><ele>2446</ele><time>2026-07-01T19:25:37.000Z</time></trkpt>
        <trkpt lat="29.545106" lon="103.334095"><ele>2447</ele><time>2026-07-01T19:26:55.000Z</time></trkpt>
        <trkpt lat="29.544628" lon="103.334262"><ele>2441</ele><time>2026-07-01T19:27:20.000Z</time></trkpt>
        <trkpt lat="29.543617" lon="103.333915"><ele>2442</ele><time>2026-07-01T19:28:07.000Z</time></trkpt>
        <trkpt lat="29.543224" lon="103.333113"><ele>2437</ele><time>2026-07-01T19:29:30.000Z</time></trkpt>
        <trkpt lat="29.542551" lon="103.332578"><ele>2439</ele><time>2026-07-01T19:30:14.000Z</time></trkpt>
        <trkpt lat="29.542371" lon="103.332166"><ele>2439</ele><time>2026-07-01T19:30:35.000Z</time></trkpt>
        <trkpt lat="29.542189" lon="103.332025"><ele>2438</ele><time>2026-07-01T19:30:59.000Z</time></trkpt>
        <trkpt lat="29.541698" lon="103.332056"><ele>2434</ele><time>2026-07-01T19:31:39.000Z</time></trkpt>
        <trkpt lat="29.541763" lon="103.331683"><ele>2435</ele><time>2026-07-01T19:32:02.000Z</time></trkpt>
        <trkpt lat="29.540605" lon="103.331784"><ele>2444</ele><time>2026-07-01T19:34:12.000Z</time></trkpt>
        <trkpt lat="29.538946" lon="103.333048"><ele>2464</ele><time>2026-07-01T19:37:41.000Z</time></trkpt>
        <trkpt lat="29.538359" lon="103.333226"><ele>2468</ele><time>2026-07-01T19:38:36.000Z</time></trkpt>
        <trkpt lat="29.537624" lon="103.33378"><ele>2473</ele><time>2026-07-01T19:39:49.000Z</time></trkpt>
        <trkpt lat="29.537351" lon="103.333779"><ele>2478</ele><time>2026-07-01T19:40:17.000Z</time></trkpt>
        <trkpt lat="29.537188" lon="103.33412"><ele>2485</ele><time>2026-07-01T19:41:09.000Z</time></trkpt>
        <trkpt lat="29.536662" lon="103.334352"><ele>2497</ele><time>2026-07-01T19:42:23.000Z</time></trkpt>
        <trkpt lat="29.536194" lon="103.334344"><ele>2501</ele><time>2026-07-01T19:43:46.000Z</time></trkpt>
        <trkpt lat="29.535429" lon="103.333719"><ele>2520</ele><time>2026-07-01T19:46:21.000Z</time></trkpt>
        <trkpt lat="29.535404" lon="103.333097"><ele>2522</ele><time>2026-07-01T19:47:05.000Z</time></trkpt>
        <trkpt lat="29.535049" lon="103.332589"><ele>2524</ele><time>2026-07-01T19:47:49.000Z</time></trkpt>
        <trkpt lat="29.534858" lon="103.331403"><ele>2528</ele><time>2026-07-01T19:49:06.000Z</time></trkpt>
        <trkpt lat="29.534734" lon="103.331499"><ele>2530</ele><time>2026-07-01T19:49:21.000Z</time></trkpt>
        <trkpt lat="29.53472" lon="103.332377"><ele>2536</ele><time>2026-07-01T19:50:21.000Z</time></trkpt>
        <trkpt lat="29.534853" lon="103.332927"><ele>2539</ele><time>2026-07-01T19:50:58.000Z</time></trkpt>
        <trkpt lat="29.533893" lon="103.33324"><ele>2571</ele><time>2026-07-01T19:56:06.000Z</time></trkpt>
        <trkpt lat="29.532599" lon="103.331985"><ele>2630</ele><time>2026-07-01T20:02:50.000Z</time></trkpt>
        <trkpt lat="29.53233" lon="103.331226"><ele>2657</ele><time>2026-07-01T20:06:12.000Z</time></trkpt>
        <trkpt lat="29.532164" lon="103.331403"><ele>2665</ele><time>2026-07-01T20:07:32.000Z</time></trkpt>
        <trkpt lat="29.532193" lon="103.33026"><ele>2693</ele><time>2026-07-01T20:13:36.000Z</time></trkpt>
        <trkpt lat="29.531501" lon="103.329975"><ele>2730</ele><time>2026-07-01T20:17:49.000Z</time></trkpt>
        <trkpt lat="29.53114" lon="103.329482"><ele>2758</ele><time>2026-07-01T20:21:04.000Z</time></trkpt>
        <trkpt lat="29.531218" lon="103.327264"><ele>2801</ele><time>2026-07-01T20:26:42.000Z</time></trkpt>
        <trkpt lat="29.530799" lon="103.326866"><ele>2817</ele><time>2026-07-01T20:28:38.000Z</time></trkpt>
        <trkpt lat="29.530166" lon="103.327106"><ele>2836</ele><time>2026-07-01T20:31:10.000Z</time></trkpt>
        <trkpt lat="29.529706" lon="103.327791"><ele>2843</ele><time>2026-07-01T20:41:31.000Z</time></trkpt>
        <trkpt lat="29.529286" lon="103.327839"><ele>2846</ele><time>2026-07-01T20:42:11.000Z</time></trkpt>
        <trkpt lat="29.528578" lon="103.329937"><ele>2884</ele><time>2026-07-01T20:46:47.000Z</time></trkpt>
        <trkpt lat="29.528321" lon="103.330252"><ele>2884</ele><time>2026-07-01T20:47:22.000Z</time></trkpt>
        <trkpt lat="29.528325" lon="103.33061"><ele>2889</ele><time>2026-07-01T20:48:23.000Z</time></trkpt>
        <trkpt lat="29.527769" lon="103.331485"><ele>2909</ele><time>2026-07-01T20:50:45.000Z</time></trkpt>
        <trkpt lat="29.527702" lon="103.331985"><ele>2914</ele><time>2026-07-01T20:51:42.000Z</time></trkpt>
        <trkpt lat="29.527517" lon="103.332165"><ele>2921</ele><time>2026-07-01T20:52:40.000Z</time></trkpt>
        <trkpt lat="29.52759" lon="103.332368"><ele>2926</ele><time>2026-07-01T20:53:12.000Z</time></trkpt>
        <trkpt lat="29.527406" lon="103.332529"><ele>2931</ele><time>2026-07-01T20:53:56.000Z</time></trkpt>
        <trkpt lat="29.527067" lon="103.332346"><ele>2934</ele><time>2026-07-01T20:54:38.000Z</time></trkpt>
        <trkpt lat="29.527081" lon="103.333367"><ele>2948</ele><time>2026-07-01T20:56:27.000Z</time></trkpt>
        <trkpt lat="29.525811" lon="103.334013"><ele>2978</ele><time>2026-07-01T21:00:53.000Z</time></trkpt>
        <trkpt lat="29.525055" lon="103.334834"><ele>2998</ele><time>2026-07-01T21:03:28.000Z</time></trkpt>
        <trkpt lat="29.524777" lon="103.334755"><ele>3000</ele><time>2026-07-01T21:04:02.000Z</time></trkpt>
        <trkpt lat="29.524119" lon="103.334961"><ele>3005</ele><time>2026-07-01T21:05:17.000Z</time></trkpt>
        <trkpt lat="29.522751" lon="103.334814"><ele>3020</ele><time>2026-07-01T21:07:37.000Z</time></trkpt>
        <trkpt lat="29.522881" lon="103.335848"><ele>3037</ele><time>2026-07-01T21:09:54.000Z</time></trkpt>
        <trkpt lat="29.523073" lon="103.335904"><ele>3040</ele><time>2026-07-01T21:10:17.000Z</time></trkpt>
      </trkseg>
  </trk>
</gpx>